Terminal Aerodrome Forecast
Issued by NWS

Home | Current Version | Previous Version | Text Only | Print | Product List | Glossary On
Versions: 1 2 3 4 5 6 7 8 9 10 11 12 13
525
FTUS45 KRIW 251127
TAFCOD
TAF
KCOD 251127Z 2512/2612 36014KT P6SM -RA OVC012
      TEMPO 2513/2515 3SM -SHRASN
     FM251700 01011G19KT 6SM -RASN SCT015 BKN025
     FM252000 34011G17KT P6SM VCSH SCT035 BKN060
     FM260000 32007KT P6SM SCT060
     FM260400 25007KT P6SM VCSH BKN060
      AMD LTD TO CLD VIS AND WIND=

USA.gov is the U.S. government's official web portal to all federal, state and local government web resources and services.